Time;durP1;ratioP1;P1;durP2;ratioP2;P2;SDS_P1;SDS_P2;PMS_P1;PMS_P2;Temp;Humidity;BMP_temperature;BMP_pressure;BME280_temperature;BME280_humidity;BME280_pressure;Samples;Min_cycle;Max_cycle;Signal;HPM_P1;HPM_P2
2022/06/04 00:01:54;;;;;;;5.27;3.00;;;17.70;99.90;;;;;;5045887;28;20651;-71
2022/06/04 00:04:21;;;;;;;2.70;2.20;;;17.70;99.90;;;;;;5045109;28;20481;-71
2022/06/04 00:06:48;;;;;;;2.53;1.90;;;17.70;99.90;;;;;;5042770;28;20813;-71
2022/06/04 00:09:15;;;;;;;6.90;3.07;;;17.60;99.90;;;;;;5045123;28;20536;-71
2022/06/04 00:17:22;;;;;;;2.73;2.13;;;17.50;99.90;;;;;;5046774;28;20439;-70
2022/06/04 00:19:49;;;;;;;2.63;2.40;;;17.50;99.90;;;;;;5050693;28;20479;-70
2022/06/04 00:22:17;;;;;;;3.60;2.23;;;17.40;99.90;;;;;;5053335;28;20603;-70
2022/06/04 00:24:45;;;;;;;2.90;2.70;;;17.40;99.90;;;;;;5046409;28;24466;-70
2022/06/04 00:27:15;;;;;;;2.57;2.30;;;17.40;99.90;;;;;;5038430;28;20976;-70
2022/06/04 00:29:44;;;;;;;3.00;2.47;;;17.40;99.90;;;;;;5053044;28;20437;-71
2022/06/04 00:32:12;;;;;;;4.30;3.10;;;17.30;99.90;;;;;;5049123;28;20963;-71
2022/06/04 00:34:38;;;;;;;2.73;2.53;;;17.30;99.90;;;;;;5047673;28;20445;-71
2022/06/04 00:37:06;;;;;;;2.90;2.10;;;17.30;99.90;;;;;;5048933;28;21004;-71
2022/06/04 00:39:32;;;;;;;5.80;2.30;;;17.30;99.90;;;;;;5047007;28;20475;-72
2022/06/04 00:42:06;;;;;;;3.73;2.60;;;17.30;99.90;;;;;;5051789;28;20950;-72
2022/06/04 00:45:30;;;;;;;3.50;2.60;;;17.20;99.90;;;;;;5048906;28;20483;-72
2022/06/04 00:47:59;;;;;;;3.10;2.53;;;16.90;99.90;;;;;;5046735;28;20460;-72
2022/06/04 00:50:28;;;;;;;3.60;2.33;;;17.00;99.90;;;;;;5051356;28;20456;-73
2022/06/04 00:52:56;;;;;;;3.80;2.50;;;17.00;99.90;;;;;;5046939;28;20491;-72
2022/06/04 00:55:24;;;;;;;2.37;2.17;;;16.90;99.90;;;;;;5053207;28;20585;-72
2022/06/04 00:58:20;;;;;;;2.70;2.30;;;16.70;99.90;;;;;;5048550;28;20474;-72
2022/06/04 01:00:54;;;;;;;3.17;2.90;;;16.70;99.90;;;;;;5031583;28;20927;-71
2022/06/04 01:03:32;;;;;;;3.33;3.03;;;16.60;99.90;;;;;;5049456;28;20456;-70
2022/06/04 01:06:21;;;;;;;4.33;3.37;;;16.70;99.90;;;;;;5045751;28;20459;-70
2022/06/04 01:09:03;;;;;;;3.33;3.00;;;16.80;99.90;;;;;;5045538;28;20444;-70
2022/06/04 01:12:09;;;;;;;4.20;2.80;;;16.80;99.90;;;;;;5046691;28;20436;-71
2022/06/04 01:14:36;;;;;;;3.03;2.60;;;16.80;99.90;;;;;;5046840;28;20972;-71
2022/06/04 01:17:12;;;;;;;5.27;2.80;;;16.80;99.90;;;;;;5046676;28;20452;-72
2022/06/04 01:19:56;;;;;;;3.37;3.07;;;16.70;99.90;;;;;;5043636;28;21012;-72
2022/06/04 01:22:41;;;;;;;3.03;2.53;;;16.80;99.90;;;;;;5052792;28;20426;-72
2022/06/04 01:25:26;;;;;;;7.77;3.70;;;16.70;99.90;;;;;;5050980;28;20480;-72
2022/06/04 01:27:59;;;;;;;3.90;3.30;;;16.60;99.90;;;;;;5046847;28;20556;-72
2022/06/04 01:30:30;;;;;;;5.00;3.47;;;16.50;99.90;;;;;;5043896;28;20468;-71
2022/06/04 01:33:04;;;;;;;4.73;3.20;;;16.50;99.90;;;;;;5043477;28;20454;-71
2022/06/04 01:35:37;;;;;;;2.73;2.30;;;16.50;99.90;;;;;;5053436;28;20467;-71
2022/06/04 01:38:09;;;;;;;5.17;3.40;;;16.40;99.90;;;;;;5047963;28;20426;-71
2022/06/04 01:43:29;;;;;;;7.20;2.83;;;16.50;99.90;;;;;;5051530;28;21189;-72
2022/06/04 01:46:00;;;;;;;10.70;3.70;;;16.40;99.90;;;;;;5051344;28;20437;-71
2022/06/04 01:48:29;;;;;;;3.20;2.93;;;16.30;99.90;;;;;;5050921;28;20422;-71
2022/06/04 01:51:00;;;;;;;4.20;3.00;;;16.30;99.90;;;;;;5046193;28;20514;-71
2022/06/04 01:53:32;;;;;;;3.60;3.30;;;16.30;99.90;;;;;;5043762;28;20488;-71
2022/06/04 01:56:02;;;;;;;4.13;3.13;;;16.20;99.90;;;;;;5052018;28;20422;-71
2022/06/04 01:58:34;;;;;;;4.63;2.97;;;16.10;99.90;;;;;;5047721;28;20473;-72
2022/06/04 02:01:06;;;;;;;4.60;3.10;;;16.10;99.90;;;;;;5045453;28;20840;-71
2022/06/04 02:03:37;;;;;;;3.40;2.50;;;16.20;99.90;;;;;;5051107;28;20494;-71
2022/06/04 02:06:08;;;;;;;5.27;3.40;;;16.20;99.90;;;;;;5045904;28;20467;-71
2022/06/04 02:08:39;;;;;;;2.77;2.50;;;16.30;99.90;;;;;;5051856;28;20440;-71
2022/06/04 02:11:10;;;;;;;3.87;3.30;;;16.20;99.90;;;;;;5052917;28;20854;-71
2022/06/04 02:13:39;;;;;;;4.53;2.93;;;16.00;99.90;;;;;;5046572;28;20499;-71
2022/06/04 02:16:10;;;;;;;5.27;2.80;;;15.90;99.90;;;;;;5048223;28;20457;-71
2022/06/04 02:18:38;;;;;;;2.83;2.50;;;15.80;99.90;;;;;;5054057;28;20449;-71
2022/06/04 02:21:05;;;;;;;5.03;3.60;;;15.90;99.90;;;;;;5047647;28;21067;-71
2022/06/04 02:23:33;;;;;;;4.47;2.67;;;15.90;99.90;;;;;;5043237;28;20479;-71
2022/06/04 02:26:01;;;;;;;4.90;3.30;;;15.90;99.90;;;;;;5048931;28;20455;-71
2022/06/04 02:28:29;;;;;;;4.70;3.47;;;15.90;99.90;;;;;;5047543;28;20460;-71
2022/06/04 02:31:04;;;;;;;6.10;5.00;;;15.80;99.90;;;;;;5049278;28;20511;-72
2022/06/04 02:33:42;;;;;;;3.73;3.03;;;15.70;99.90;;;;;;5048337;28;20479;-71
2022/06/04 02:36:17;;;;;;;4.87;3.20;;;15.70;99.90;;;;;;5047272;28;20881;-71
2022/06/04 02:38:50;;;;;;;5.80;3.37;;;15.70;99.90;;;;;;5047732;28;20843;-72
2022/06/04 02:41:21;;;;;;;4.07;3.10;;;15.80;99.90;;;;;;5050017;28;20467;-71
2022/06/04 02:43:55;;;;;;;5.03;3.53;;;15.80;99.90;;;;;;5046948;28;20490;-71
2022/06/04 02:46:29;;;;;;;4.33;3.00;;;15.80;99.90;;;;;;5047461;28;21149;-72
2022/06/04 02:49:02;;;;;;;3.97;3.37;;;15.80;99.90;;;;;;5041047;28;20451;-72
2022/06/04 02:51:35;;;;;;;4.77;2.93;;;15.70;99.90;;;;;;5042575;28;20467;-71
2022/06/04 02:54:05;;;;;;;5.60;3.03;;;15.70;99.90;;;;;;5045959;28;20475;-71
2022/06/04 02:56:35;;;;;;;3.60;3.20;;;15.50;99.90;;;;;;5049766;28;20455;-71
2022/06/04 02:59:06;;;;;;;3.40;3.10;;;15.50;99.90;;;;;;5035345;28;20484;-71
2022/06/04 03:01:44;;;;;;;3.77;3.10;;;15.40;99.90;;;;;;5037197;28;20470;-72
2022/06/04 03:04:11;;;;;;;3.40;2.93;;;15.40;99.90;;;;;;5045590;28;20484;-71
2022/06/04 03:06:39;;;;;;;4.10;3.03;;;15.50;99.90;;;;;;5055141;28;20463;-71
2022/06/04 03:09:14;;;;;;;3.63;2.77;;;15.50;99.90;;;;;;5051127;28;20467;-71
2022/06/04 03:11:44;;;;;;;3.80;2.90;;;15.40;99.90;;;;;;5057556;28;20477;-71
2022/06/04 03:14:11;;;;;;;2.93;2.63;;;15.50;99.90;;;;;;5067387;22;20467;-72
2022/06/04 03:16:42;;;;;;;5.00;3.10;;;15.50;99.90;;;;;;5028093;28;20442;-72
2022/06/04 03:19:10;;;;;;;4.97;3.10;;;15.60;99.90;;;;;;5034078;28;20573;-72
2022/06/04 03:21:38;;;;;;;5.70;3.50;;;15.60;99.90;;;;;;5033477;28;20466;-72
2022/06/04 03:24:06;;;;;;;3.40;2.67;;;15.60;99.90;;;;;;5019086;28;20972;-72
2022/06/04 03:26:33;;;;;;;6.20;3.83;;;15.50;99.90;;;;;;5029997;28;20464;-71
2022/06/04 03:29:00;;;;;;;12.17;5.63;;;15.60;99.90;;;;;;5032658;28;20456;-74
2022/06/04 03:31:28;;;;;;;4.63;3.30;;;15.70;99.90;;;;;;5031990;28;20435;-72
2022/06/04 03:33:57;;;;;;;3.80;3.50;;;15.60;99.90;;;;;;5035026;28;20551;-72
2022/06/04 03:36:25;;;;;;;4.80;2.57;;;15.60;99.90;;;;;;5033136;28;20963;-72
2022/06/04 03:38:52;;;;;;;9.73;2.93;;;15.50;99.90;;;;;;5032067;28;20883;-72
2022/06/04 03:41:19;;;;;;;7.47;3.70;;;15.40;99.90;;;;;;5031517;28;20455;-71
2022/06/04 03:43:48;;;;;;;4.67;3.20;;;15.40;99.90;;;;;;5035668;28;21008;-72
2022/06/04 03:46:15;;;;;;;6.40;3.10;;;15.40;99.90;;;;;;5036062;28;20457;-73
2022/06/04 03:48:42;;;;;;;3.20;2.80;;;15.30;99.90;;;;;;5031264;28;20461;-71
2022/06/04 03:51:10;;;;;;;3.87;3.13;;;15.30;99.90;;;;;;5030053;28;20562;-72
2022/06/04 03:53:37;;;;;;;4.70;2.80;;;15.50;99.90;;;;;;5035319;28;20431;-72
2022/06/04 03:56:04;;;;;;;5.90;3.33;;;15.60;99.90;;;;;;5026553;28;20488;-71
2022/06/04 03:58:31;;;;;;;3.23;2.77;;;15.50;99.90;;;;;;5034935;28;20467;-73
2022/06/04 04:00:58;;;;;;;3.40;2.73;;;15.70;99.90;;;;;;5036227;28;20465;-74
2022/06/04 04:03:25;;;;;;;4.53;2.77;;;15.60;99.90;;;;;;5030068;28;20434;-72
2022/06/04 04:05:55;;;;;;;5.93;4.53;;;15.50;99.90;;;;;;5019600;28;21116;-72
2022/06/04 04:08:25;;;;;;;3.90;2.80;;;15.50;99.90;;;;;;5039393;28;20455;-72
2022/06/04 04:10:52;;;;;;;3.93;3.20;;;15.60;99.90;;;;;;5039275;28;21161;-70
2022/06/04 04:13:20;;;;;;;5.43;3.53;;;15.50;99.90;;;;;;5041368;28;20585;-71
2022/06/04 04:15:47;;;;;;;5.93;3.17;;;15.60;99.90;;;;;;5032279;28;20496;-71
2022/06/04 04:18:15;;;;;;;4.00;3.10;;;15.60;99.90;;;;;;5041572;28;20471;-71
2022/06/04 04:20:45;;;;;;;5.50;4.47;;;15.50;99.90;;;;;;5037721;28;20486;-72
2022/06/04 04:23:12;;;;;;;6.83;3.40;;;15.70;99.90;;;;;;5036984;28;20892;-71
2022/06/04 04:25:40;;;;;;;5.67;4.70;;;15.50;99.90;;;;;;5039198;28;20537;-71
2022/06/04 04:28:08;;;;;;;3.60;2.90;;;15.40;99.90;;;;;;5038835;28;20442;-72
2022/06/04 04:30:36;;;;;;;3.43;2.63;;;15.50;99.90;;;;;;5037545;28;20602;-72
2022/06/04 04:33:03;;;;;;;3.63;3.00;;;15.60;99.90;;;;;;5038660;28;20439;-71
2022/06/04 04:35:33;;;;;;;5.43;3.30;;;15.70;99.90;;;;;;5037841;28;20470;-71
2022/06/04 04:38:01;;;;;;;5.20;3.57;;;15.70;99.90;;;;;;5033860;28;20449;-73
2022/06/04 04:40:29;;;;;;;5.37;3.33;;;15.70;99.90;;;;;;5038010;28;20459;-72
2022/06/04 04:42:58;;;;;;;3.63;2.93;;;15.60;99.90;;;;;;5036795;28;20438;-71
2022/06/04 04:45:26;;;;;;;3.47;3.17;;;15.50;99.90;;;;;;5032506;28;21006;-72
2022/06/04 04:47:54;;;;;;;4.30;3.47;;;15.50;99.90;;;;;;5034462;28;20435;-71
2022/06/04 04:50:23;;;;;;;4.07;2.77;;;15.60;99.90;;;;;;5039239;28;20559;-71
2022/06/04 04:52:50;;;;;;;3.83;3.00;;;15.50;99.90;;;;;;5034952;28;20912;-72
2022/06/04 04:55:18;;;;;;;4.40;3.10;;;15.40;99.90;;;;;;5036618;28;20483;-73
2022/06/04 04:57:45;;;;;;;3.43;2.90;;;15.60;99.90;;;;;;5035310;28;20445;-71
2022/06/04 05:00:15;;;;;;;3.30;3.00;;;15.60;99.90;;;;;;5032469;28;20465;-72
2022/06/04 05:02:43;;;;;;;5.27;3.63;;;15.60;99.90;;;;;;5034255;28;21965;-71
2022/06/04 05:05:11;;;;;;;2.93;2.30;;;15.70;99.90;;;;;;5027881;28;20484;-72
2022/06/04 05:07:38;;;;;;;5.83;3.60;;;15.80;99.90;;;;;;5033535;28;20459;-71
2022/06/04 05:10:08;;;;;;;2.90;2.17;;;15.70;99.90;;;;;;5036201;28;20460;-72
2022/06/04 05:12:35;;;;;;;3.07;2.80;;;15.60;99.90;;;;;;5032245;28;20842;-71
2022/06/04 05:15:02;;;;;;;3.10;2.80;;;15.60;99.90;;;;;;5038641;28;20488;-72
2022/06/04 05:17:30;;;;;;;6.80;3.67;;;15.70;99.90;;;;;;5035954;28;20456;-72
2022/06/04 05:19:57;;;;;;;6.50;3.77;;;15.90;99.90;;;;;;5036845;28;20479;-72
2022/06/04 05:22:24;;;;;;;3.50;3.17;;;16.00;99.90;;;;;;5032041;28;20440;-73
2022/06/04 05:24:52;;;;;;;6.87;3.60;;;16.00;99.90;;;;;;5039898;28;20476;-73
2022/06/04 05:27:18;;;;;;;4.13;3.13;;;16.00;99.90;;;;;;5035687;28;20856;-73
2022/06/04 05:29:45;;;;;;;6.13;3.20;;;16.20;99.90;;;;;;5038035;28;20433;-73
2022/06/04 05:32:12;;;;;;;4.53;3.03;;;16.20;99.90;;;;;;5039958;28;20427;-72
2022/06/04 05:34:40;;;;;;;7.27;4.17;;;16.30;99.90;;;;;;5031269;28;20898;-72
2022/06/04 05:37:08;;;;;;;5.00;4.00;;;16.30;99.90;;;;;;5033161;28;20491;-72
2022/06/04 05:39:35;;;;;;;4.60;2.80;;;16.20;99.90;;;;;;5030080;28;20486;-72
2022/06/04 05:42:03;;;;;;;5.30;2.80;;;16.10;99.90;;;;;;5033371;28;20459;-71
2022/06/04 05:44:30;;;;;;;4.87;3.77;;;15.90;99.90;;;;;;5021586;28;20476;-73
2022/06/04 05:46:57;;;;;;;6.40;3.77;;;16.10;99.90;;;;;;5040819;28;20474;-72
2022/06/04 05:49:24;;;;;;;2.67;2.40;;;16.10;99.90;;;;;;5042175;28;21157;-73
2022/06/04 05:51:53;;;;;;;4.73;2.50;;;16.30;99.90;;;;;;5047325;28;20442;-72
2022/06/04 05:54:21;;;;;;;4.50;3.10;;;16.10;99.90;;;;;;5043631;28;20475;-73
2022/06/04 05:56:49;;;;;;;4.40;3.77;;;16.10;99.90;;;;;;5049108;28;20467;-73
2022/06/04 05:59:19;;;;;;;4.27;3.30;;;16.30;99.90;;;;;;5035815;28;20484;-71
2022/06/04 06:01:48;;;;;;;4.70;3.93;;;16.20;99.90;;;;;;5044528;28;20471;-71
2022/06/04 06:04:16;;;;;;;3.30;3.00;;;16.10;99.90;;;;;;5045551;28;20458;-71
2022/06/04 06:06:45;;;;;;;4.37;3.10;;;16.20;99.90;;;;;;5045620;28;20965;-71
2022/06/04 06:09:17;;;;;;;5.23;2.90;;;16.40;99.90;;;;;;5047783;28;20513;-72
2022/06/04 06:11:44;;;;;;;4.07;3.30;;;16.30;99.90;;;;;;5049929;28;20867;-73
2022/06/04 06:14:12;;;;;;;4.30;3.90;;;16.60;99.90;;;;;;5044342;28;20580;-73
2022/06/04 06:16:42;;;;;;;5.70;4.13;;;16.70;99.90;;;;;;5042817;28;20434;-73
2022/06/04 06:19:09;;;;;;;3.47;2.97;;;16.90;99.90;;;;;;5043075;28;20518;-72
2022/06/04 06:21:37;;;;;;;7.13;4.17;;;17.00;99.90;;;;;;5047751;28;20458;-73
2022/06/04 06:24:05;;;;;;;3.43;3.13;;;17.20;99.90;;;;;;5047499;28;21031;-73
2022/06/04 06:26:41;;;;;;;4.70;3.10;;;17.50;99.90;;;;;;5049397;28;20787;-72
2022/06/04 06:29:07;;;;;;;6.30;3.77;;;17.40;99.90;;;;;;5043378;28;20469;-72
2022/06/04 06:31:36;;;;;;;4.63;3.50;;;17.30;99.90;;;;;;5043116;28;20460;-72
2022/06/04 06:34:03;;;;;;;4.63;3.40;;;17.30;99.90;;;;;;5045972;28;20964;-73
2022/06/04 06:36:30;;;;;;;4.03;3.70;;;17.20;99.90;;;;;;5047972;28;20431;-72
2022/06/04 06:38:57;;;;;;;8.00;3.80;;;17.30;99.90;;;;;;5038050;28;20468;-73
2022/06/04 06:41:25;;;;;;;3.90;3.03;;;17.50;99.90;;;;;;5045618;28;20451;-73
2022/06/04 06:43:54;;;;;;;4.30;3.43;;;17.50;99.90;;;;;;5046082;28;20454;-71
2022/06/04 06:46:24;;;;;;;4.63;3.03;;;17.70;99.90;;;;;;5043774;28;21602;-72
2022/06/04 06:48:53;;;;;;;6.83;3.80;;;18.10;99.90;;;;;;5047464;28;20471;-72
2022/06/04 06:51:22;;;;;;;2.97;2.63;;;18.50;99.90;;;;;;5042643;28;20542;-72
2022/06/04 06:53:49;;;;;;;4.17;3.33;;;18.80;99.90;;;;;;5044053;28;20995;-71
2022/06/04 06:56:19;;;;;;;3.60;3.27;;;19.00;99.90;;;;;;5042764;28;20483;-71
2022/06/04 06:58:46;;;;;;;7.03;3.40;;;19.00;99.90;;;;;;5025263;28;20467;-73
2022/06/04 07:01:16;;;;;;;4.53;3.50;;;19.10;99.90;;;;;;5029016;28;20481;-71
2022/06/04 07:03:44;;;;;;;3.30;3.00;;;18.90;99.90;;;;;;5025265;28;20462;-73
2022/06/04 07:06:13;;;;;;;4.30;3.77;;;18.70;99.90;;;;;;5027970;28;21263;-72
2022/06/04 07:08:42;;;;;;;4.93;4.07;;;19.10;99.90;;;;;;5037857;28;20459;-72
2022/06/04 07:11:10;;;;;;;6.30;4.10;;;19.80;99.90;;;;;;5037398;28;20471;-71
2022/06/04 07:13:37;;;;;;;12.20;3.60;;;20.00;99.90;;;;;;5029912;28;20467;-73
2022/06/04 07:16:05;;;;;;;6.47;2.83;;;20.30;99.90;;;;;;5035601;28;20498;-73
2022/06/04 07:18:33;;;;;;;3.13;2.53;;;19.70;99.90;;;;;;5024666;28;20464;-72
2022/06/04 07:21:00;;;;;;;3.80;3.30;;;19.40;99.90;;;;;;5035697;28;20598;-73
2022/06/04 07:23:27;;;;;;;4.43;3.53;;;19.60;99.90;;;;;;5040943;28;20822;-71
2022/06/04 07:25:55;;;;;;;3.80;2.63;;;20.30;99.90;;;;;;5033198;28;20483;-71
2022/06/04 07:28:22;;;;;;;4.10;3.30;;;21.00;99.90;;;;;;5037800;28;20979;-72
2022/06/04 07:30:49;;;;;;;9.60;4.40;;;21.30;99.90;;;;;;5028076;28;21045;-72
2022/06/04 07:33:17;;;;;;;37.50;6.40;;;21.20;99.90;;;;;;5031268;28;20543;-72
2022/06/04 07:35:49;;;;;;;6.17;4.10;;;21.70;99.90;;;;;;5036437;28;20606;-72
2022/06/04 07:38:16;;;;;;;4.83;3.77;;;22.00;99.90;;;;;;5026473;28;20463;-72
2022/06/04 07:40:43;;;;;;;10.00;6.10;;;22.30;99.90;;;;;;5033874;28;20488;-72
2022/06/04 07:43:11;;;;;;;5.47;3.83;;;22.30;99.90;;;;;;5038080;28;20464;-71
2022/06/04 07:45:41;;;;;;;6.27;4.00;;;21.90;99.90;;;;;;5028650;28;20483;-73
2022/06/04 07:48:09;;;;;;;3.90;3.43;;;21.50;99.90;;;;;;5046096;28;20451;-73
2022/06/04 07:50:40;;;;;;;5.00;3.77;;;20.80;99.90;;;;;;5037143;28;20471;-72
2022/06/04 07:53:09;;;;;;;12.60;4.17;;;20.80;99.90;;;;;;5037166;28;20466;-71
2022/06/04 07:55:40;;;;;;;8.07;3.50;;;21.50;99.90;;;;;;5039594;28;20575;-72
2022/06/04 07:58:08;;;;;;;7.27;4.40;;;21.50;99.90;;;;;;5032211;28;20468;-72
2022/06/04 08:00:38;;;;;;;4.10;3.70;;;21.60;99.90;;;;;;5028591;28;20484;-71
2022/06/04 08:03:06;;;;;;;7.37;2.97;;;21.40;99.90;;;;;;5039229;28;20455;-72
2022/06/04 08:05:34;;;;;;;3.73;3.20;;;21.20;99.90;;;;;;5043710;28;20482;-71
2022/06/04 08:08:02;;;;;;;5.30;4.50;;;21.10;99.90;;;;;;5033956;28;20468;-72
2022/06/04 08:10:30;;;;;;;34.67;6.47;;;21.30;99.90;;;;;;5031151;28;22253;-71
2022/06/04 08:12:57;;;;;;;8.83;4.90;;;21.60;99.90;;;;;;5025116;28;20464;-71
2022/06/04 08:15:24;;;;;;;5.33;3.70;;;21.30;99.90;;;;;;5021538;28;20494;-72
2022/06/04 08:17:51;;;;;;;20.10;8.80;;;20.80;99.90;;;;;;5032614;28;20464;-71
2022/06/04 08:20:19;;;;;;;11.90;3.87;;;20.80;99.90;;;;;;5039333;28;20490;-72
2022/06/04 08:22:46;;;;;;;3.47;3.13;;;20.80;99.90;;;;;;5027528;28;20476;-72
2022/06/04 08:25:14;;;;;;;3.03;2.77;;;20.90;99.90;;;;;;5025774;28;20479;-72
2022/06/04 08:27:44;;;;;;;5.20;4.20;;;20.80;99.90;;;;;;5037257;28;21206;-71
2022/06/04 08:30:12;;;;;;;5.77;3.93;;;20.50;99.90;;;;;;5033222;28;20470;-72
2022/06/04 08:32:40;;;;;;;3.93;3.53;;;20.50;99.90;;;;;;5036804;28;20537;-71
2022/06/04 08:35:07;;;;;;;4.63;3.70;;;20.90;99.90;;;;;;5045140;28;20586;-71
2022/06/04 08:37:34;;;;;;;7.13;3.33;;;21.00;99.90;;;;;;5043272;28;20460;-72
2022/06/04 08:40:01;;;;;;;4.77;3.70;;;21.20;99.90;;;;;;5040957;28;20462;-71
2022/06/04 08:43:02;;;;;;;6.53;4.10;;;21.50;99.90;;;;;;5038101;28;20453;-72
2022/06/04 08:45:30;;;;;;;4.93;3.87;;;21.70;99.90;;;;;;5046551;28;20487;-71
2022/06/04 08:47:57;;;;;;;3.87;3.47;;;21.80;99.90;;;;;;5048398;28;20455;-71
2022/06/04 08:50:28;;;;;;;4.17;3.77;;;22.20;99.90;;;;;;5029466;28;20455;-73
2022/06/04 08:53:01;;;;;;;8.43;3.63;;;22.10;99.90;;;;;;5037798;28;20462;-71
2022/06/04 08:58:43;;;;;;;5.50;4.47;;;22.50;99.90;;;;;;4988090;28;20465;-71
2022/06/04 09:01:18;;;;;;;4.90;3.30;;;22.70;99.90;;;;;;5037957;28;21035;-72
2022/06/04 09:03:50;;;;;;;6.30;4.33;;;22.30;99.90;;;;;;5026823;28;20971;-73
2022/06/04 09:06:31;;;;;;;6.23;4.30;;;22.40;99.90;;;;;;5038506;28;20928;-71
2022/06/04 09:09:04;;;;;;;5.70;4.40;;;22.50;99.90;;;;;;5035613;28;20459;-73
2022/06/04 09:11:42;;;;;;;5.53;3.77;;;22.80;99.90;;;;;;5031308;28;20514;-72
2022/06/04 09:14:28;;;;;;;10.40;3.80;;;23.00;99.90;;;;;;5034900;28;20459;-72
2022/06/04 09:16:59;;;;;;;6.70;3.87;;;22.90;99.90;;;;;;5024988;28;20491;-71
2022/06/04 09:19:31;;;;;;;3.73;3.37;;;23.20;99.90;;;;;;5034715;28;20463;-72
2022/06/04 09:21:59;;;;;;;7.80;4.50;;;23.10;99.90;;;;;;5025653;28;21004;-72
2022/06/04 09:24:26;;;;;;;6.87;3.90;;;23.30;99.90;;;;;;5022657;28;20479;-71
2022/06/04 09:27:00;;;;;;;4.17;3.50;;;23.80;99.90;;;;;;5019939;28;20459;-71
2022/06/04 09:29:50;;;;;;;4.03;2.97;;;23.50;99.90;;;;;;5019007;28;20490;-71
2022/06/04 09:32:25;;;;;;;11.80;4.17;;;23.70;99.90;;;;;;5038326;28;20551;-71
2022/06/04 09:34:54;;;;;;;7.67;3.90;;;24.10;99.90;;;;;;5058813;22;20456;-66
2022/06/04 09:37:22;;;;;;;4.97;4.07;;;24.00;99.90;;;;;;5056743;28;20528;-67
2022/06/04 09:40:02;;;;;;;6.57;3.50;;;23.10;99.90;;;;;;5055821;28;20454;-68
2022/06/04 09:42:31;;;;;;;11.20;5.27;;;22.80;99.90;;;;;;5066722;28;20509;-68
2022/06/04 09:45:03;;;;;;;10.87;4.50;;;22.90;99.90;;;;;;5064241;28;20566;-67
2022/06/04 09:47:35;;;;;;;17.90;5.60;;;23.10;99.90;;;;;;5075467;28;20892;-68
2022/06/04 09:50:05;;;;;;;7.33;5.03;;;23.20;99.90;;;;;;5072185;28;20480;-67
2022/06/04 09:52:37;;;;;;;6.17;4.90;;;23.60;99.90;;;;;;5076832;28;20895;-68
2022/06/04 09:55:16;;;;;;;13.43;6.67;;;23.80;99.90;;;;;;5074890;28;20474;-68
2022/06/04 09:57:43;;;;;;;18.77;5.67;;;24.10;99.90;;;;;;5076971;28;20462;-68
2022/06/04 10:00:22;;;;;;;6.93;4.00;;;24.50;99.90;;;;;;5077863;28;20469;-67
2022/06/04 10:02:54;;;;;;;7.00;4.10;;;24.50;99.90;;;;;;5077963;28;21065;-68
2022/06/04 10:05:24;;;;;;;6.33;3.50;;;24.10;99.90;;;;;;5079493;28;21135;-68
2022/06/04 10:07:52;;;;;;;4.27;3.63;;;24.40;99.90;;;;;;5082545;28;20837;-68
2022/06/04 10:10:37;;;;;;;12.33;4.87;;;24.10;99.90;;;;;;5078917;28;20963;-69
2022/06/04 10:16:01;;;;;;;12.80;4.20;;;23.30;99.90;;;;;;5072190;28;20498;-68
2022/06/04 10:18:29;;;;;;;4.87;3.90;;;23.10;99.90;;;;;;5077345;28;20557;-68
2022/06/04 10:21:01;;;;;;;4.77;4.10;;;23.20;99.90;;;;;;5076813;28;20486;-69
2022/06/04 10:23:30;;;;;;;4.27;3.87;;;23.00;99.90;;;;;;5078940;28;20454;-69
2022/06/04 10:26:20;;;;;;;5.17;4.37;;;23.30;99.90;;;;;;5078638;28;20994;-69
2022/06/04 10:29:02;;;;;;;4.13;3.67;;;23.40;99.90;;;;;;5072995;28;20481;-69
2022/06/04 10:31:39;;;;;;;5.23;3.90;;;23.60;99.90;;;;;;5079792;28;20823;-68
2022/06/04 10:34:16;;;;;;;6.20;5.00;;;23.50;99.90;;;;;;5075146;28;20473;-68
2022/06/04 10:36:51;;;;;;;5.10;4.30;;;23.20;99.90;;;;;;5082528;28;20979;-69
2022/06/04 10:39:31;;;;;;;4.07;3.23;;;23.50;99.90;;;;;;5073416;28;20465;-68
2022/06/04 10:42:06;;;;;;;6.77;4.13;;;24.10;99.90;;;;;;5074271;28;20473;-69
2022/06/04 10:44:58;;;;;;;5.90;3.87;;;24.50;99.90;;;;;;5074346;28;20958;-67
2022/06/04 10:47:34;;;;;;;4.40;3.50;;;25.00;99.90;;;;;;5074663;28;20454;-67
2022/06/04 10:50:18;;;;;;;5.80;4.10;;;25.40;99.90;;;;;;5075422;28;20473;-67
2022/06/04 10:52:49;;;;;;;4.50;4.10;;;25.70;99.90;;;;;;5076514;28;20446;-67
2022/06/04 10:55:21;;;;;;;5.40;4.73;;;26.00;99.90;;;;;;5078370;28;21034;-68
2022/06/04 10:58:02;;;;;;;4.90;4.43;;;26.10;99.90;;;;;;5074100;28;20462;-68
2022/06/04 11:00:32;;;;;;;8.67;5.30;;;26.60;99.90;;;;;;5074062;28;20455;-67
2022/06/04 11:03:07;;;;;;;5.07;3.40;;;26.80;99.90;;;;;;5077480;28;20509;-68
2022/06/04 11:05:45;;;;;;;9.67;4.57;;;26.80;99.90;;;;;;5075431;28;20484;-67
2022/06/04 11:08:19;;;;;;;6.17;3.97;;;27.20;99.90;;;;;;5075174;28;20539;-67
2022/06/04 11:10:50;;;;;;;4.77;3.90;;;27.60;99.90;;;;;;5077514;28;20454;-68
2022/06/04 11:13:22;;;;;;;4.27;3.83;;;27.40;99.70;;;;;;5075963;28;20994;-68
2022/06/04 11:15:53;;;;;;;5.40;3.53;;;27.30;99.90;;;;;;5072236;28;21002;-67
2022/06/04 11:18:29;;;;;;;4.30;3.90;;;27.50;98.70;;;;;;5077955;28;20458;-68
2022/06/04 11:21:02;;;;;;;6.43;4.07;;;26.90;98.80;;;;;;5072851;28;20710;-68
2022/06/04 11:23:44;;;;;;;3.60;3.30;;;27.20;99.70;;;;;;5074267;28;20462;-68
2022/06/04 11:26:19;;;;;;;5.97;3.80;;;27.20;99.00;;;;;;5072057;28;20960;-69
2022/06/04 11:28:46;;;;;;;4.20;3.80;;;26.50;98.60;;;;;;5081362;28;20460;-69
2022/06/04 11:31:23;;;;;;;5.00;3.67;;;26.20;98.80;;;;;;5064212;28;20982;-67
2022/06/04 11:34:02;;;;;;;5.30;4.00;;;26.20;98.50;;;;;;5073208;28;20465;-68
2022/06/04 11:36:37;;;;;;;6.17;3.80;;;26.20;99.00;;;;;;5070738;28;20874;-68
2022/06/04 11:39:19;;;;;;;7.03;3.57;;;26.30;99.10;;;;;;5077450;28;20999;-68
2022/06/04 11:41:57;;;;;;;5.57;5.03;;;25.90;99.50;;;;;;5066206;28;20842;-68
2022/06/04 11:44:50;;;;;;;5.83;5.33;;;26.50;99.00;;;;;;5065906;28;20461;-69
2022/06/04 11:47:31;;;;;;;5.63;4.53;;;27.30;97.60;;;;;;5073144;28;20487;-69
2022/06/04 11:50:10;;;;;;;5.40;4.00;;;27.90;97.80;;;;;;5070675;28;20717;-68
2022/06/04 11:52:50;;;;;;;3.67;3.37;;;28.60;95.90;;;;;;5074992;28;20454;-69
2022/06/04 11:55:30;;;;;;;5.33;4.83;;;29.30;94.90;;;;;;5076069;28;20503;-69
2022/06/04 11:58:35;;;;;;;4.70;4.20;;;30.00;93.20;;;;;;5074762;28;20846;-68
2022/06/04 12:01:07;;;;;;;5.03;4.53;;;29.70;92.80;;;;;;5072702;28;20947;-67
2022/06/04 12:03:39;;;;;;;5.50;4.77;;;28.70;92.50;;;;;;5068742;28;20454;-69
2022/06/04 12:06:25;;;;;;;5.17;4.67;;;28.00;94.10;;;;;;5068397;28;20515;-69
2022/06/04 12:08:56;;;;;;;4.90;4.47;;;27.40;93.90;;;;;;5071390;28;20469;-68
2022/06/04 12:11:34;;;;;;;5.17;4.67;;;26.70;95.30;;;;;;5073211;28;20458;-68
2022/06/04 12:14:10;;;;;;;9.27;4.80;;;27.30;95.70;;;;;;5074556;28;20454;-68
2022/06/04 12:16:43;;;;;;;10.60;4.90;;;28.20;95.30;;;;;;5075314;28;20477;-68
2022/06/04 12:25:08;;;;;;;4.43;4.03;;;28.20;93.10;;;;;;5071258;28;20477;-68
2022/06/04 12:27:38;;;;;;;4.53;3.90;;;27.60;93.70;;;;;;5072335;28;20469;-67
2022/06/04 12:30:18;;;;;;;6.33;4.50;;;27.30;94.00;;;;;;5075330;28;21185;-68
2022/06/04 12:32:55;;;;;;;4.77;3.97;;;28.20;94.00;;;;;;5077842;28;20481;-68
2022/06/04 12:35:24;;;;;;;6.50;3.50;;;28.60;93.20;;;;;;5079900;28;20576;-69
2022/06/04 12:37:55;;;;;;;4.00;3.50;;;29.60;91.30;;;;;;5074258;28;20465;-68
2022/06/04 12:40:32;;;;;;;4.73;3.73;;;29.50;91.90;;;;;;5077841;28;20454;-68
2022/06/04 12:43:07;;;;;;;24.67;4.20;;;30.90;89.70;;;;;;5067708;28;20575;-69
2022/06/04 12:45:38;;;;;;;14.10;4.30;;;31.20;90.20;;;;;;5057574;28;20860;-68
2022/06/04 12:48:22;;;;;;;13.33;4.97;;;32.00;88.10;;;;;;5066222;28;20458;-69
2022/06/04 12:50:53;;;;;;;4.87;4.40;;;33.20;83.10;;;;;;5056205;28;20550;-69
2022/06/04 12:53:23;;;;;;;4.20;3.63;;;32.30;80.00;;;;;;5058155;28;20832;-69
2022/06/04 12:55:55;;;;;;;6.07;4.10;;;31.60;80.30;;;;;;5063497;28;20478;-68
2022/06/04 12:58:29;;;;;;;7.00;4.10;;;30.90;83.40;;;;;;5075495;28;20553;-68
2022/06/04 13:00:59;;;;;;;4.00;3.70;;;31.00;81.80;;;;;;5076737;28;20511;-68
2022/06/04 13:03:36;;;;;;;3.87;3.47;;;31.70;80.40;;;;;;5076640;28;20486;-68
2022/06/04 13:06:34;;;;;;;8.17;4.40;;;31.10;78.00;;;;;;5078267;28;20480;-68
2022/06/04 13:09:12;;;;;;;3.83;3.47;;;30.10;79.80;;;;;;5078513;28;20501;-69
2022/06/04 13:11:54;;;;;;;4.73;3.50;;;29.10;83.00;;;;;;5078950;28;20462;-69
2022/06/04 13:14:39;;;;;;;4.07;3.53;;;29.50;84.10;;;;;;5075064;28;20466;-68
2022/06/04 13:17:34;;;;;;;6.17;2.83;;;29.60;82.10;;;;;;5076539;28;20957;-69
2022/06/04 13:20:24;;;;;;;9.17;3.60;;;29.30;84.20;;;;;;5076508;28;20480;-68
2022/06/04 13:22:53;;;;;;;4.90;4.40;;;28.80;83.30;;;;;;5079833;28;20494;-69
2022/06/04 13:25:28;;;;;;;2.97;2.77;;;27.70;85.20;;;;;;5083117;28;20522;-68
2022/06/04 13:27:56;;;;;;;3.47;3.17;;;27.40;88.50;;;;;;5079608;28;21027;-69
2022/06/04 13:30:25;;;;;;;3.17;2.83;;;27.70;87.90;;;;;;5077310;28;20458;-68